Arthurdale, West Virginia
Current Conditions -  °F | °C
As of 2:53 AM on Thursday 27 Nov 2014 (Local Time) from KMGW Reporting Station
Haze Haze  
Wind Chill: 33°   Ceiling: 500
Heat Index: 33°   Visibility: 5mi
Dew Point: 30°   Wind: 0mph
Humidity: 89%   Direction: NA
Pressure: 30"   Gusts: NA
Location:  39.49°N, 79.82°W
Report Text: KMGW 270753Z AUTO 00000KT 5SM BR BKN005 OVC013 01/M01 A3000 RMK AO2 SLP171 T00061011 TSNO
Loading
Personal Weather Stations






























Interactive Weather Map New forecast layout! Learn more

10-Day Weather Forecast

Advertisements
Track Severe Weather on mobile